Algoma, West Virginia
Current Conditions -  °F | °C
As of 5:00 PM on Tuesday 21 Oct 2014 (Local Time) from KBLF Reporting Station
Overcast Overcast  
Wind Chill: 50°   Ceiling: 2800
Heat Index: 50°   Visibility: 10mi
Dew Point: 40°   Wind: 13mph
Humidity: 68%   Direction: 300°WNW
Pressure: 29.97"   Gusts: 22mph
Location:  37.3807°N, 81.4099°W
Report Text: KBLF 212100Z AUTO 30011G19KT 280V340 10SM SCT024 BKN028 OVC065 10/04 A2997 RMK AO2 T01000044
Loading
Personal Weather Stations






























Interactive Weather Map
Tropical Storm Tracking
New forecast layout! Learn more

10-Day Weather Forecast

Advertisements
Track Severe Weather on mobile